createdAt,value
2023-04-16T00:00:30.306Z,101108.02
2023-04-16T00:01:00.729Z,101105.52
2023-04-16T00:01:31.148Z,101107.38
2023-04-16T00:02:01.797Z,101111.06
2023-04-16T00:02:32.374Z,101109.86
2023-04-16T00:03:03.022Z,101113.25
2023-04-16T00:03:33.758Z,101108.96
2023-04-16T00:04:04.572Z,101113.06
2023-04-16T00:04:35.132Z,101112.22
2023-04-16T00:05:05.698Z,101115.47
2023-04-16T00:05:36.093Z,101111.92
2023-04-16T00:06:06.513Z,101114.12
2023-04-16T00:06:36.939Z,101113.95
2023-04-16T00:07:07.383Z,101112.89
2023-04-16T00:07:37.801Z,101111.37
2023-04-16T00:08:08.278Z,101110.70
2023-04-16T00:08:38.669Z,101112.22
2023-04-16T00:09:09.313Z,101114.24
2023-04-16T00:09:39.788Z,101113.08
2023-04-16T00:10:10.216Z,101114.58
2023-04-16T00:10:40.632Z,101116.05
2023-04-16T00:11:11.052Z,101117.04
2023-04-16T00:11:41.481Z,101116.59
2023-04-16T00:12:11.923Z,101114.95
2023-04-16T00:12:42.338Z,101117.16
2023-04-16T00:13:12.762Z,101117.95
2023-04-16T00:13:43.199Z,101117.25
2023-04-16T00:14:13.616Z,101114.14
2023-04-16T00:14:44.038Z,101113.50
2023-04-16T00:15:14.461Z,101112.84
2023-04-16T00:15:44.894Z,101115.38
2023-04-16T00:16:15.363Z,101113.90
2023-04-16T00:16:45.790Z,101118.55
2023-04-16T00:17:16.194Z,101118.12
2023-04-16T00:17:46.696Z,101117.11
2023-04-16T00:18:17.072Z,101119.57
2023-04-16T00:18:47.499Z,101116.33
2023-04-16T00:19:17.917Z,101117.70
2023-04-16T00:19:48.335Z,101116.88
2023-04-16T00:20:18.777Z,101119.97
2023-04-16T00:20:49.197Z,101120.67
2023-04-16T00:21:19.619Z,101114.64
2023-04-16T00:21:50.047Z,101118.80
2023-04-16T00:22:20.477Z,101118.31
2023-04-16T00:22:50.922Z,101117.11
2023-04-16T00:23:21.481Z,101124.34
2023-04-16T00:23:51.843Z,101119.88
2023-04-16T00:24:22.277Z,101116.20
2023-04-16T00:24:52.707Z,101124.52
2023-04-16T00:25:23.134Z,101123.23
2023-04-16T00:25:53.572Z,101122.53
2023-04-16T00:26:23.987Z,101121.84
2023-04-16T00:26:54.414Z,101123.11
2023-04-16T00:27:24.841Z,101122.95
2023-04-16T00:27:55.267Z,101122.78
2023-04-16T00:28:25.688Z,101123.05
2023-04-16T00:28:56.110Z,101124.59
2023-04-16T00:29:26.536Z,101126.33
2023-04-16T00:29:56.959Z,101124.83
2023-04-16T00:30:27.389Z,101126.93
2023-04-16T00:30:57.870Z,101125.09
2023-04-16T00:31:28.437Z,101125.27
2023-04-16T00:31:58.962Z,101128.05
2023-04-16T00:32:29.450Z,101125.88
2023-04-16T00:32:59.951Z,101124.12
2023-04-16T00:33:30.379Z,101125.98
2023-04-16T00:34:00.792Z,101121.75
2023-04-16T00:34:31.214Z,101122.25
2023-04-16T00:35:01.626Z,101123.14
2023-04-16T00:35:32.052Z,101119.46
2023-04-16T00:36:02.561Z,101120.54
2023-04-16T00:36:32.944Z,101119.74
2023-04-16T00:37:03.357Z,101122.31
2023-04-16T00:37:33.795Z,101120.70
2023-04-16T00:38:04.226Z,101121.19
2023-04-16T00:38:34.660Z,101122.55
2023-04-16T00:39:05.078Z,101122.93
2023-04-16T00:39:35.502Z,101120.06
2023-04-16T00:40:05.923Z,101126.95
2023-04-16T00:40:36.351Z,101124.58
2023-04-16T00:41:06.773Z,101122.31
2023-04-16T00:41:37.198Z,101123.31
2023-04-16T00:42:07.621Z,101124.18
2023-04-16T00:42:38.111Z,101123.45
2023-04-16T00:43:08.512Z,101123.23
2023-04-16T00:43:38.927Z,101122.57
2023-04-16T00:44:09.352Z,101120.84
2023-04-16T00:44:39.784Z,101122.86
2023-04-16T00:45:10.225Z,101125.06
2023-04-16T00:45:40.651Z,101123.77
2023-04-16T00:46:11.110Z,101124.47
2023-04-16T00:46:41.561Z,101124.94
2023-04-16T00:47:11.935Z,101123.91
2023-04-16T00:47:42.440Z,101125.58
2023-04-16T00:48:12.832Z,101123.23
2023-04-16T00:48:43.261Z,101124.57
2023-04-16T00:49:13.678Z,101122.39
2023-04-16T00:49:44.101Z,101126.72
2023-04-16T00:50:14.526Z,101122.16
2023-04-16T00:50:44.944Z,101121.69
2023-04-16T00:51:15.380Z,101123.98
2023-04-16T00:51:45.808Z,101123.58
2023-04-16T00:52:16.228Z,101122.85
2023-04-16T00:52:46.668Z,101121.81
2023-04-16T00:53:17.103Z,101121.03
2023-04-16T00:53:47.539Z,101122.56
2023-04-16T00:54:17.941Z,101121.53
2023-04-16T00:54:48.376Z,101122.55
2023-04-16T00:55:18.801Z,101119.87
2023-04-16T00:55:49.233Z,101119.57
2023-04-16T00:56:20.585Z,101123.31
2023-04-16T00:56:51.063Z,101121.64
2023-04-16T00:57:21.483Z,101119.92
2023-04-16T00:57:51.914Z,101122.23
2023-04-16T00:58:22.337Z,101119.84
2023-04-16T00:58:52.756Z,101121.05
2023-04-16T00:59:23.178Z,101121.77
2023-04-16T00:59:53.613Z,101121.90
2023-04-16T01:00:24.040Z,101122.88
2023-04-16T01:00:54.457Z,101125.34
2023-04-16T01:01:24.944Z,101120.14
2023-04-16T01:01:55.390Z,101127.55
2023-04-16T01:02:25.918Z,101126.25
2023-04-16T01:02:56.502Z,101127.31
2023-04-16T01:03:27.236Z,101124.83
2023-04-16T01:03:57.841Z,101124.69
2023-04-16T01:04:28.349Z,101125.66
2023-04-16T01:04:58.878Z,101123.16
2023-04-16T01:05:29.309Z,101126.49
2023-04-16T01:05:59.733Z,101128.83
2023-04-16T01:06:30.150Z,101127.00
2023-04-16T01:07:00.579Z,101129.16
2023-04-16T01:07:31.003Z,101124.30
2023-04-16T01:08:01.458Z,101124.81
2023-04-16T01:08:31.874Z,101130.33
2023-04-16T01:09:02.428Z,101128.63
2023-04-16T01:09:32.782Z,101126.78
2023-04-16T01:10:03.220Z,101132.34
2023-04-16T01:10:33.644Z,101130.53
2023-04-16T01:11:04.062Z,101129.55
2023-04-16T01:11:34.485Z,101131.22
2023-04-16T01:12:04.906Z,101131.05
2023-04-16T01:12:35.328Z,101132.85
2023-04-16T01:13:05.760Z,101135.55
2023-04-16T01:13:36.186Z,101135.16
2023-04-16T01:14:06.623Z,101132.07
2023-04-16T01:14:37.028Z,101133.59
2023-04-16T01:15:07.480Z,101131.45
2023-04-16T01:15:37.950Z,101128.95
2023-04-16T01:16:08.448Z,101132.71
2023-04-16T01:16:38.910Z,101133.70
2023-04-16T01:17:09.333Z,101136.66
2023-04-16T01:17:39.774Z,101134.02
2023-04-16T01:18:10.219Z,101140.37
2023-04-16T01:18:40.655Z,101138.84
2023-04-16T01:19:11.293Z,101144.56
2023-04-16T01:19:41.901Z,101139.84
2023-04-16T01:20:12.329Z,101142.70
2023-04-16T01:20:42.747Z,101143.19
2023-04-16T01:21:13.172Z,101144.89
2023-04-16T01:21:43.591Z,101145.91
2023-04-16T01:22:14.012Z,101142.17
2023-04-16T01:22:44.441Z,101146.29
2023-04-16T01:23:14.884Z,101144.16
2023-04-16T01:23:45.288Z,101146.53
2023-04-16T01:24:15.744Z,101148.72
2023-04-16T01:24:46.134Z,101148.36
2023-04-16T01:25:16.595Z,101148.17
2023-04-16T01:25:47.011Z,101149.47
2023-04-16T01:26:17.411Z,101148.24
2023-04-16T01:26:47.836Z,101149.30
2023-04-16T01:27:18.254Z,101146.35
2023-04-16T01:27:48.673Z,101151.37
2023-04-16T01:28:19.124Z,101146.48
2023-04-16T01:28:49.548Z,101148.75
2023-04-16T01:29:19.972Z,101148.18
2023-04-16T01:29:50.392Z,101146.73
2023-04-16T01:30:20.816Z,101148.62
2023-04-16T01:30:51.236Z,101148.20
2023-04-16T01:31:21.707Z,101147.91
2023-04-16T01:31:52.135Z,101149.41
2023-04-16T01:32:22.621Z,101150.87
2023-04-16T01:32:53.116Z,101149.52
2023-04-16T01:33:23.526Z,101150.97
2023-04-16T01:33:53.950Z,101151.43
2023-04-16T01:34:24.383Z,101153.88
2023-04-16T01:34:54.803Z,101151.23
2023-04-16T01:35:25.213Z,101148.20
2023-04-16T01:35:55.636Z,101151.14
2023-04-16T01:36:26.073Z,101152.02
2023-04-16T01:36:56.495Z,101152.20
2023-04-16T01:37:26.928Z,101151.55
2023-04-16T01:37:57.353Z,101147.20
2023-04-16T01:38:27.798Z,101151.12
2023-04-16T01:38:58.217Z,101153.14
2023-04-16T01:39:28.674Z,101153.81
2023-04-16T01:39:59.072Z,101148.38
2023-04-16T01:40:29.493Z,101150.22
2023-04-16T01:40:59.944Z,101151.18
2023-04-16T01:41:30.338Z,101150.17
2023-04-16T01:42:00.785Z,101149.80
2023-04-16T01:42:31.202Z,101152.53
2023-04-16T01:43:01.622Z,101146.48
2023-04-16T01:43:32.080Z,101149.20
2023-04-16T01:44:02.493Z,101149.78
2023-04-16T01:44:32.914Z,101151.80
2023-04-16T01:45:03.333Z,101151.55
2023-04-16T01:45:33.783Z,101148.86
2023-04-16T01:46:04.192Z,101149.94
2023-04-16T01:46:34.636Z,101149.98
2023-04-16T01:47:05.088Z,101148.48
2023-04-16T01:47:35.480Z,101152.85
2023-04-16T01:48:05.895Z,101153.39
2023-04-16T01:48:36.339Z,101153.38
2023-04-16T01:49:06.873Z,101156.36
2023-04-16T01:49:37.307Z,101154.20
2023-04-16T01:50:07.731Z,101154.82
2023-04-16T01:50:38.155Z,101154.78
2023-04-16T01:51:08.577Z,101153.10
2023-04-16T01:51:38.999Z,101153.92
2023-04-16T01:52:09.421Z,101155.39
2023-04-16T01:52:39.843Z,101152.73
2023-04-16T01:53:10.265Z,101156.79
2023-04-16T01:53:40.694Z,101155.12
2023-04-16T01:54:11.119Z,101157.55
2023-04-16T01:54:41.565Z,101152.61
2023-04-16T01:55:11.978Z,101155.52
2023-04-16T01:55:42.391Z,101158.70
2023-04-16T01:56:12.811Z,101156.97
2023-04-16T01:56:43.246Z,101154.83
2023-04-16T01:57:13.660Z,101155.16
2023-04-16T01:57:44.082Z,101153.56
2023-04-16T01:58:14.524Z,101156.60
2023-04-16T01:58:44.936Z,101157.61
2023-04-16T01:59:15.365Z,101156.27
2023-04-16T01:59:45.791Z,101158.95
2023-04-16T02:00:16.210Z,101157.61
2023-04-16T02:00:46.673Z,101157.12
2023-04-16T02:01:17.097Z,101156.05
2023-04-16T02:01:47.609Z,101159.73
2023-04-16T02:02:18.137Z,101159.30
2023-04-16T02:02:48.693Z,101157.82
2023-04-16T02:03:19.216Z,101158.62
2023-04-16T02:03:49.856Z,101160.98
2023-04-16T02:04:20.401Z,101161.30
2023-04-16T02:04:50.832Z,101162.12
2023-04-16T02:05:21.267Z,101158.58
2023-04-16T02:05:51.695Z,101160.06
2023-04-16T02:06:22.114Z,101162.86
2023-04-16T02:06:52.543Z,101160.00
2023-04-16T02:07:22.982Z,101166.95
2023-04-16T02:07:53.426Z,101163.52
2023-04-16T02:08:23.828Z,101167.33
2023-04-16T02:08:54.267Z,101165.54
2023-04-16T02:09:24.696Z,101167.75
2023-04-16T02:09:55.134Z,101168.41
2023-04-16T02:10:25.565Z,101169.92
2023-04-16T02:10:55.975Z,101168.02
2023-04-16T02:11:26.410Z,101165.66
2023-04-16T02:11:56.824Z,101168.25
2023-04-16T02:12:27.246Z,101163.22
2023-04-16T02:12:57.669Z,101167.54
2023-04-16T02:13:28.097Z,101165.55
2023-04-16T02:13:58.536Z,101167.20
2023-04-16T02:14:28.956Z,101170.06
2023-04-16T02:14:59.379Z,101172.62
2023-04-16T02:15:29.806Z,101168.06
2023-04-16T02:16:00.252Z,101169.39
2023-04-16T02:16:30.695Z,101170.36
2023-04-16T02:17:01.070Z,101168.19
2023-04-16T02:17:31.509Z,101173.59
2023-04-16T02:18:01.998Z,101167.92
2023-04-16T02:18:32.409Z,101172.47
2023-04-16T02:19:02.825Z,101173.65
2023-04-16T02:19:33.249Z,101172.12
2023-04-16T02:20:03.673Z,101170.45
2023-04-16T02:20:34.107Z,101169.62
2023-04-16T02:21:04.534Z,101173.48
2023-04-16T02:21:34.965Z,101168.42
2023-04-16T02:22:05.382Z,101170.67
2023-04-16T02:22:35.811Z,101171.14
2023-04-16T02:23:06.228Z,101173.97
2023-04-16T02:23:36.650Z,101171.31
2023-04-16T02:24:07.090Z,101174.69
2023-04-16T02:24:37.539Z,101172.94
2023-04-16T02:25:07.952Z,101175.93
2023-04-16T02:25:38.352Z,101173.27
2023-04-16T02:26:08.779Z,101173.08
2023-04-16T02:26:39.201Z,101174.66
2023-04-16T02:27:09.627Z,101174.65
2023-04-16T02:27:40.055Z,101175.19
2023-04-16T02:28:10.476Z,101174.47
2023-04-16T02:28:40.920Z,101173.47
2023-04-16T02:29:11.717Z,101173.80
2023-04-16T02:29:42.263Z,101173.23
2023-04-16T02:30:12.688Z,101175.95
2023-04-16T02:30:43.101Z,101174.07
2023-04-16T02:31:13.529Z,101175.93
2023-04-16T02:31:43.994Z,101180.25
2023-04-16T02:32:14.440Z,101178.88
2023-04-16T02:32:44.861Z,101178.20
2023-04-16T02:33:15.294Z,101180.72
2023-04-16T02:33:45.729Z,101179.05
2023-04-16T02:34:16.177Z,101179.43
2023-04-16T02:34:46.596Z,101178.10
2023-04-16T02:35:17.020Z,101180.14
2023-04-16T02:35:47.445Z,101179.69
2023-04-16T02:36:17.874Z,101180.21
2023-04-16T02:36:48.293Z,101181.97
2023-04-16T02:37:18.713Z,101181.11
2023-04-16T02:37:49.132Z,101182.61
2023-04-16T02:38:19.626Z,101181.09
2023-04-16T02:38:50.046Z,101183.73
2023-04-16T02:39:20.487Z,101185.69
2023-04-16T02:39:50.931Z,101184.72
2023-04-16T02:40:21.386Z,101186.93
2023-04-16T02:40:51.786Z,101182.45
2023-04-16T02:41:22.202Z,101184.29
2023-04-16T02:41:52.626Z,101188.17
2023-04-16T02:42:23.047Z,101187.04
2023-04-16T02:42:53.471Z,101185.47
2023-04-16T02:43:23.896Z,101186.30
2023-04-16T02:43:54.317Z,101188.91
2023-04-16T02:44:24.752Z,101186.57
2023-04-16T02:44:55.177Z,101189.09
2023-04-16T02:45:25.602Z,101187.27
2023-04-16T02:45:56.053Z,101187.48
2023-04-16T02:46:26.482Z,101188.31
2023-04-16T02:46:56.882Z,101189.67
2023-04-16T02:47:27.317Z,101189.21
2023-04-16T02:47:57.793Z,101186.17
2023-04-16T02:48:28.186Z,101188.68
2023-04-16T02:48:58.617Z,101189.12
2023-04-16T02:49:29.070Z,101190.11
2023-04-16T02:49:59.491Z,101188.47
2023-04-16T02:50:29.918Z,101188.14
2023-04-16T02:51:00.349Z,101190.64
2023-04-16T02:51:30.769Z,101189.94
2023-04-16T02:52:01.196Z,101189.59
2023-04-16T02:52:31.614Z,101187.04
2023-04-16T02:53:02.062Z,101190.70
2023-04-16T02:53:32.465Z,101189.71
2023-04-16T02:54:02.894Z,101190.03
2023-04-16T02:54:33.320Z,101191.47
2023-04-16T02:55:03.744Z,101192.80
2023-04-16T02:55:34.187Z,101189.48
2023-04-16T02:56:04.593Z,101189.12
2023-04-16T02:56:35.022Z,101190.77
2023-04-16T02:57:05.438Z,101190.22
2023-04-16T02:57:35.864Z,101196.70
2023-04-16T02:58:06.286Z,101193.61
2023-04-16T02:58:36.704Z,101189.73
2023-04-16T02:59:07.360Z,101192.54
2023-04-16T02:59:37.858Z,101191.94
2023-04-16T03:00:08.278Z,101191.44
2023-04-16T03:00:38.701Z,101193.31
2023-04-16T03:01:09.155Z,101189.31
2023-04-16T03:01:39.584Z,101194.86
2023-04-16T03:02:10.054Z,101194.14
2023-04-16T03:02:40.527Z,101197.33
2023-04-16T03:03:10.948Z,101194.69
2023-04-16T03:03:41.325Z,101195.78
2023-04-16T03:04:11.851Z,101198.29
2023-04-16T03:04:42.271Z,101197.01
2023-04-16T03:05:12.669Z,101196.34
2023-04-16T03:05:43.102Z,101195.19
2023-04-16T03:06:13.554Z,101196.35
2023-04-16T03:06:43.979Z,101197.17
2023-04-16T03:07:14.379Z,101194.30
2023-04-16T03:07:44.800Z,101195.42
2023-04-16T03:08:15.221Z,101194.58
2023-04-16T03:08:45.650Z,101196.84
2023-04-16T03:09:16.074Z,101195.99
2023-04-16T03:09:46.530Z,101197.18
2023-04-16T03:10:16.949Z,101200.12
2023-04-16T03:10:47.391Z,101197.59
2023-04-16T03:11:17.794Z,101199.16
2023-04-16T03:11:48.215Z,101203.20
2023-04-16T03:12:18.634Z,101199.16
2023-04-16T03:12:49.057Z,101201.85
2023-04-16T03:13:19.484Z,101201.39
2023-04-16T03:13:49.939Z,101202.40
2023-04-16T03:14:20.338Z,101201.85
2023-04-16T03:14:50.774Z,101199.54
2023-04-16T03:15:21.234Z,101205.10
2023-04-16T03:15:51.694Z,101205.70
2023-04-16T03:16:22.122Z,101207.53
2023-04-16T03:16:52.512Z,101207.38
2023-04-16T03:17:22.975Z,101209.56
2023-04-16T03:17:53.436Z,101209.09
2023-04-16T03:18:23.826Z,101211.11
2023-04-16T03:18:54.250Z,101208.20
2023-04-16T03:19:24.682Z,101206.83
2023-04-16T03:19:55.111Z,101205.97
2023-04-16T03:20:25.532Z,101207.82
2023-04-16T03:20:55.953Z,101206.31
2023-04-16T03:21:26.385Z,101208.09
2023-04-16T03:21:56.801Z,101207.95
2023-04-16T03:22:27.220Z,101208.48
2023-04-16T03:22:57.644Z,101211.17
2023-04-16T03:23:28.075Z,101213.30
2023-04-16T03:23:58.494Z,101208.75
2023-04-16T03:24:28.919Z,101206.66
2023-04-16T03:24:59.368Z,101206.36
2023-04-16T03:25:29.795Z,101207.42
2023-04-16T03:26:00.304Z,101209.28
2023-04-16T03:26:30.699Z,101209.27
2023-04-16T03:27:01.142Z,101210.45
2023-04-16T03:27:31.544Z,101204.72
2023-04-16T03:28:01.967Z,101206.38
2023-04-16T03:28:32.395Z,101209.56
2023-04-16T03:29:02.828Z,101209.41
2023-04-16T03:29:33.263Z,101208.27
2023-04-16T03:30:03.711Z,101210.57
2023-04-16T03:30:34.115Z,101210.38
2023-04-16T03:31:04.680Z,101207.40
2023-04-16T03:31:35.103Z,101206.91
2023-04-16T03:32:05.521Z,101210.11
2023-04-16T03:32:35.964Z,101212.62
2023-04-16T03:33:06.368Z,101212.56
2023-04-16T03:33:36.779Z,101210.88
2023-04-16T03:34:07.227Z,101207.30
2023-04-16T03:34:37.632Z,101212.02
2023-04-16T03:35:08.069Z,101211.22
2023-04-16T03:35:38.521Z,101212.48
2023-04-16T03:36:08.916Z,101212.67
2023-04-16T03:36:39.335Z,101211.34
2023-04-16T03:37:09.755Z,101211.78
2023-04-16T03:37:40.182Z,101213.13
2023-04-16T03:38:10.614Z,101210.66
2023-04-16T03:38:41.034Z,101210.52
2023-04-16T03:39:11.605Z,101210.54
2023-04-16T03:39:42.092Z,101211.41
2023-04-16T03:40:12.533Z,101213.66
2023-04-16T03:40:42.986Z,101208.30
2023-04-16T03:41:13.407Z,101211.30
2023-04-16T03:41:43.812Z,101209.75
2023-04-16T03:42:14.227Z,101212.55
2023-04-16T03:42:44.652Z,101213.45
2023-04-16T03:43:15.071Z,101209.10
2023-04-16T03:43:45.489Z,101210.49
2023-04-16T03:44:15.936Z,101210.97
2023-04-16T03:44:46.360Z,101210.09
2023-04-16T03:45:16.804Z,101210.14
2023-04-16T03:45:47.221Z,101210.84
2023-04-16T03:46:17.653Z,101212.38
2023-04-16T03:46:48.160Z,101215.22
2023-04-16T03:47:18.567Z,101213.19
2023-04-16T03:47:49.006Z,101215.77
2023-04-16T03:48:19.405Z,101216.96
2023-04-16T03:48:49.821Z,101215.26
2023-04-16T03:49:20.264Z,101215.26
2023-04-16T03:49:50.685Z,101215.27
2023-04-16T03:50:21.132Z,101216.34
2023-04-16T03:50:51.545Z,101218.02
2023-04-16T03:51:21.981Z,101215.38
2023-04-16T03:51:52.392Z,101219.76
2023-04-16T03:52:22.830Z,101217.11
2023-04-16T03:52:53.241Z,101217.56
2023-04-16T03:53:23.674Z,101218.90
2023-04-16T03:53:54.088Z,101217.17
2023-04-16T03:54:24.538Z,101220.56
2023-04-16T03:54:54.959Z,101220.09
2023-04-16T03:55:25.430Z,101217.03
2023-04-16T03:55:55.821Z,101222.06
2023-04-16T03:56:26.279Z,101222.51
2023-04-16T03:56:56.664Z,101222.98
2023-04-16T03:57:27.089Z,101220.28
2023-04-16T03:57:57.519Z,101225.12
2023-04-16T03:58:27.946Z,101221.41
2023-04-16T03:58:58.365Z,101223.31
2023-04-16T03:59:28.790Z,101228.24
2023-04-16T03:59:59.215Z,101225.45
2023-04-16T04:00:29.651Z,101224.14
2023-04-16T04:01:00.114Z,101224.00
2023-04-16T04:01:30.520Z,101227.65
2023-04-16T04:02:01.035Z,101227.22
2023-04-16T04:02:31.650Z,101229.20
2023-04-16T04:03:02.441Z,101225.15
2023-04-16T04:03:33.147Z,101230.59
2023-04-16T04:04:04.045Z,101232.93
2023-04-16T04:04:34.867Z,101229.93
2023-04-16T04:05:05.415Z,101231.59
2023-04-16T04:05:35.825Z,101234.55
2023-04-16T04:06:06.248Z,101233.37
2023-04-16T04:06:36.667Z,101234.16
2023-04-16T04:07:07.086Z,101232.84
2023-04-16T04:07:37.523Z,101235.56
2023-04-16T04:08:07.944Z,101234.55
2023-04-16T04:08:38.365Z,101238.87
2023-04-16T04:09:09.040Z,101240.09
2023-04-16T04:09:39.613Z,101239.08
2023-04-16T04:10:10.035Z,101237.66
2023-04-16T04:10:40.497Z,101240.47
2023-04-16T04:11:10.917Z,101240.52
2023-04-16T04:11:41.362Z,101244.06
2023-04-16T04:12:11.762Z,101240.18
2023-04-16T04:12:42.184Z,101244.44
2023-04-16T04:13:12.606Z,101247.62
2023-04-16T04:13:43.031Z,101244.41
2023-04-16T04:14:13.456Z,101246.93
2023-04-16T04:14:43.872Z,101247.12
2023-04-16T04:15:14.312Z,101247.23
2023-04-16T04:15:44.745Z,101245.88
2023-04-16T04:16:15.197Z,101246.05
2023-04-16T04:16:45.683Z,101248.25
2023-04-16T04:17:16.151Z,101250.23
2023-04-16T04:17:46.674Z,101251.85
2023-04-16T04:18:17.063Z,101250.15
2023-04-16T04:18:47.493Z,101248.03
2023-04-16T04:19:17.934Z,101247.86
2023-04-16T04:20:00.299Z,101250.05
2023-04-16T04:20:23.665Z,101250.78
2023-04-16T04:20:54.115Z,101251.69
2023-04-16T04:21:24.528Z,101250.81
2023-04-16T04:21:54.965Z,101254.97
2023-04-16T04:22:25.383Z,101249.42
2023-04-16T04:22:55.813Z,101250.94
2023-04-16T04:23:26.232Z,101250.16
2023-04-16T04:23:56.657Z,101251.29
2023-04-16T04:24:27.091Z,101250.59
2023-04-16T04:24:57.515Z,101250.89
2023-04-16T04:25:27.933Z,101251.02
2023-04-16T04:25:58.416Z,101251.73
2023-04-16T04:26:28.842Z,101251.44
2023-04-16T04:26:59.247Z,101256.33
2023-04-16T04:27:29.648Z,101256.15
2023-04-16T04:28:00.100Z,101254.77
2023-04-16T04:28:30.505Z,101254.62
2023-04-16T04:29:00.924Z,101257.45
2023-04-16T04:29:31.349Z,101256.47
2023-04-16T04:30:01.770Z,101256.57
2023-04-16T04:30:32.191Z,101254.36
2023-04-16T04:31:02.636Z,101256.70
2023-04-16T04:31:33.065Z,101253.22
2023-04-16T04:32:03.508Z,101255.28
2023-04-16T04:32:33.959Z,101257.12
2023-04-16T04:33:04.340Z,101260.44
2023-04-16T04:33:34.746Z,101257.40
2023-04-16T04:34:05.173Z,101258.58
2023-04-16T04:34:35.596Z,101260.77
2023-04-16T04:35:06.050Z,101259.76
2023-04-16T04:35:36.450Z,101265.20
2023-04-16T04:36:06.888Z,101263.40
2023-04-16T04:36:37.324Z,101264.24
2023-04-16T04:37:07.738Z,101265.19
2023-04-16T04:37:38.175Z,101265.25
2023-04-16T04:38:08.590Z,101265.59
2023-04-16T04:38:39.013Z,101265.06
2023-04-16T04:39:09.604Z,101266.30
2023-04-16T04:39:40.165Z,101261.62
2023-04-16T04:40:10.594Z,101265.00
2023-04-16T04:40:41.007Z,101261.80
2023-04-16T04:41:11.443Z,101266.84
2023-04-16T04:41:41.866Z,101262.75
2023-04-16T04:42:12.327Z,101265.09
2023-04-16T04:42:42.730Z,101265.06
2023-04-16T04:43:13.132Z,101265.97
2023-04-16T04:43:43.561Z,101264.69
2023-04-16T04:44:13.990Z,101266.72
2023-04-16T04:44:44.411Z,101265.73
2023-04-16T04:45:14.852Z,101267.09
2023-04-16T04:45:45.284Z,101269.80
2023-04-16T04:46:15.721Z,101270.81
2023-04-16T04:46:46.112Z,101269.50
2023-04-16T04:47:16.537Z,101270.65
2023-04-16T04:47:46.982Z,101271.36
2023-04-16T04:48:17.391Z,101268.81
2023-04-16T04:48:47.811Z,101271.33
2023-04-16T04:49:18.240Z,101271.98
2023-04-16T04:49:48.706Z,101270.75
2023-04-16T04:50:19.092Z,101271.94
2023-04-16T04:50:49.508Z,101270.98
2023-04-16T04:51:19.965Z,101267.13
2023-04-16T04:51:50.381Z,101269.95
2023-04-16T04:52:20.815Z,101271.17
2023-04-16T04:52:51.238Z,101268.29
2023-04-16T04:53:21.660Z,101270.51
2023-04-16T04:53:52.077Z,101272.38
2023-04-16T04:54:22.500Z,101272.19
2023-04-16T04:54:52.921Z,101270.31
2023-04-16T04:55:23.344Z,101271.84
2023-04-16T04:55:55.689Z,101273.34
2023-04-16T04:56:28.989Z,101268.98
2023-04-16T04:56:59.419Z,101272.14
2023-04-16T04:57:29.855Z,101269.59
2023-04-16T04:58:00.257Z,101274.28
2023-04-16T04:58:30.681Z,101270.42
2023-04-16T04:59:01.106Z,101277.72
2023-04-16T04:59:31.544Z,101276.23
2023-04-16T05:00:01.968Z,101276.08
2023-04-16T05:00:32.398Z,101279.27
2023-04-16T05:01:02.846Z,101279.25
2023-04-16T05:01:33.371Z,101281.26
2023-04-16T05:02:03.901Z,101279.39
2023-04-16T05:02:34.421Z,101283.66
2023-04-16T05:03:04.931Z,101280.46
2023-04-16T05:03:35.479Z,101282.12
2023-04-16T05:04:05.975Z,101283.23
2023-04-16T05:04:36.382Z,101278.74
2023-04-16T05:05:06.773Z,101282.30
2023-04-16T05:05:37.204Z,101284.06
2023-04-16T05:06:07.619Z,101285.38
2023-04-16T05:06:38.056Z,101284.84
2023-04-16T05:07:08.470Z,101285.66
2023-04-16T05:07:38.907Z,101284.84
2023-04-16T05:08:09.331Z,101288.69
2023-04-16T05:08:39.752Z,101287.62
2023-04-16T05:09:10.302Z,101289.69
2023-04-16T05:09:40.836Z,101288.82
2023-04-16T05:10:11.247Z,101287.17
2023-04-16T05:10:41.669Z,101288.45
2023-04-16T05:11:12.108Z,101292.42
2023-04-16T05:11:42.558Z,101292.06
2023-04-16T05:12:12.982Z,101291.88
2023-04-16T05:12:43.419Z,101293.30
2023-04-16T05:13:13.832Z,101294.67
2023-04-16T05:13:44.272Z,101292.23
2023-04-16T05:14:14.711Z,101295.25
2023-04-16T05:14:45.120Z,101295.99
2023-04-16T05:15:15.550Z,101291.98
2023-04-16T05:15:45.969Z,101293.23
2023-04-16T05:16:16.410Z,101294.44
2023-04-16T05:16:46.851Z,101295.19
2023-04-16T05:17:17.270Z,101293.38
2023-04-16T05:17:47.740Z,101292.23
2023-04-16T05:18:18.115Z,101292.38
2023-04-16T05:18:48.555Z,101291.92
2023-04-16T05:19:18.964Z,101295.09
2023-04-16T05:19:49.387Z,101291.66
2023-04-16T05:20:19.808Z,101296.16
2023-04-16T05:20:50.233Z,101294.25
2023-04-16T05:21:20.679Z,101292.44
2023-04-16T05:21:51.120Z,101297.30
2023-04-16T05:22:21.549Z,101298.51
2023-04-16T05:22:51.970Z,101296.52
2023-04-16T05:23:22.436Z,101299.55
2023-04-16T05:23:52.837Z,101300.33
2023-04-16T05:24:23.293Z,101299.11
2023-04-16T05:24:53.694Z,101299.64
2023-04-16T05:25:24.156Z,101304.70
2023-04-16T05:25:54.653Z,101306.30
2023-04-16T05:26:25.074Z,101303.64
2023-04-16T05:26:55.508Z,101302.70
2023-04-16T05:27:25.937Z,101300.85
2023-04-16T05:27:56.385Z,101304.34
2023-04-16T05:28:26.784Z,101301.99
2023-04-16T05:28:57.207Z,101302.48
2023-04-16T05:29:27.638Z,101304.88
2023-04-16T05:29:58.059Z,101302.88
2023-04-16T05:30:28.477Z,101299.50
2023-04-16T05:30:58.981Z,101301.73
2023-04-16T05:31:29.378Z,101303.88
2023-04-16T05:31:59.824Z,101303.42
2023-04-16T05:32:30.257Z,101301.06
2023-04-16T05:33:00.699Z,101303.42
2023-04-16T05:33:31.139Z,101301.32
2023-04-16T05:34:01.609Z,101304.38
2023-04-16T05:34:32.031Z,101306.91
2023-04-16T05:35:02.456Z,101303.84
2023-04-16T05:35:32.883Z,101306.55
2023-04-16T05:36:03.305Z,101303.00
2023-04-16T05:36:33.729Z,101304.04
2023-04-16T05:37:04.195Z,101306.59
2023-04-16T05:37:34.587Z,101305.91
2023-04-16T05:38:05.023Z,101305.72
2023-04-16T05:38:35.442Z,101309.23
2023-04-16T05:39:05.859Z,101306.72
2023-04-16T05:39:36.287Z,101309.03
2023-04-16T05:40:06.710Z,101311.90
2023-04-16T05:40:37.140Z,101311.36
2023-04-16T05:41:07.560Z,101313.64
2023-04-16T05:41:37.981Z,101310.91
2023-04-16T05:42:08.428Z,101314.47
2023-04-16T05:42:38.841Z,101311.76
2023-04-16T05:43:09.326Z,101312.14
2023-04-16T05:43:39.687Z,101314.57
2023-04-16T05:44:10.107Z,101312.42
2023-04-16T05:44:40.531Z,101314.64
2023-04-16T05:45:10.958Z,101317.02
2023-04-16T05:45:41.484Z,101316.88
2023-04-16T05:46:11.918Z,101314.51
2023-04-16T05:46:42.355Z,101315.03
2023-04-16T05:47:12.762Z,101316.55
2023-04-16T05:47:43.245Z,101320.69